createdAt,value
2023-05-14T00:01:46.574Z,2.70
2023-05-14T00:04:14.587Z,2.90
2023-05-14T00:06:42.559Z,3.83
2023-05-14T00:09:10.515Z,2.53
2023-05-14T00:11:38.721Z,3.35
2023-05-14T00:14:06.695Z,3.20
2023-05-14T00:16:36.176Z,2.80
2023-05-14T00:19:04.236Z,2.90
2023-05-14T00:21:32.815Z,3.58
2023-05-14T00:24:00.809Z,2.35
2023-05-14T00:26:28.796Z,3.53
2023-05-14T00:28:56.697Z,3.25
2023-05-14T00:31:24.740Z,3.10
2023-05-14T00:33:54.074Z,2.88
2023-05-14T00:36:21.991Z,2.85
2023-05-14T00:38:50.298Z,2.95
2023-05-14T00:41:18.327Z,3.50
2023-05-14T00:43:46.283Z,3.45
2023-05-14T00:46:15.202Z,3.28
2023-05-14T00:48:43.398Z,3.10
2023-05-14T00:51:12.965Z,3.47
2023-05-14T00:53:41.155Z,3.13
2023-05-14T00:56:09.349Z,3.10
2023-05-14T00:58:37.277Z,2.63
2023-05-14T01:01:05.436Z,2.63
2023-05-14T01:03:33.774Z,3.63
2023-05-14T01:06:08.958Z,2.95
2023-05-14T01:08:47.866Z,3.20
2023-05-14T01:11:21.488Z,2.95
2023-05-14T01:13:57.032Z,2.83
2023-05-14T01:16:29.119Z,2.95
2023-05-14T01:18:58.733Z,2.80
2023-05-14T01:21:35.967Z,2.75
2023-05-14T01:24:03.999Z,2.65
2023-05-14T01:26:32.579Z,2.88
2023-05-14T01:29:05.233Z,2.92
2023-05-14T01:31:37.330Z,2.72
2023-05-14T01:34:07.076Z,3.17
2023-05-14T01:36:37.172Z,3.50
2023-05-14T01:39:05.492Z,3.03
2023-05-14T01:41:34.629Z,2.60
2023-05-14T01:44:02.625Z,2.95
2023-05-14T01:46:32.893Z,2.95
2023-05-14T01:49:01.249Z,3.30
2023-05-14T01:51:29.210Z,3.30
2023-05-14T01:53:58.617Z,3.40
2023-05-14T01:56:27.150Z,3.50
2023-05-14T01:58:55.705Z,3.10
2023-05-14T02:01:23.895Z,3.25
2023-05-14T02:03:51.926Z,3.00
2023-05-14T02:06:19.907Z,3.00
2023-05-14T02:08:47.873Z,2.90
2023-05-14T02:11:17.155Z,2.38
2023-05-14T02:13:45.175Z,2.80
2023-05-14T02:16:13.213Z,2.67
2023-05-14T02:18:41.320Z,2.97
2023-05-14T02:21:09.309Z,3.72
2023-05-14T02:23:41.531Z,3.50
2023-05-14T02:26:10.891Z,3.13
2023-05-14T02:28:40.310Z,3.17
2023-05-14T02:31:08.313Z,3.58
2023-05-14T02:33:36.368Z,3.25
2023-05-14T02:36:04.570Z,3.22
2023-05-14T02:38:32.491Z,3.40
2023-05-14T02:41:00.412Z,3.30
2023-05-14T02:43:28.318Z,2.85
2023-05-14T02:45:57.633Z,3.15
2023-05-14T02:48:26.201Z,3.13
2023-05-14T02:50:54.166Z,3.13
2023-05-14T02:53:22.095Z,3.20
2023-05-14T02:55:50.047Z,2.83
2023-05-14T02:58:17.981Z,3.03
2023-05-14T03:00:46.168Z,3.80
2023-05-14T03:03:15.704Z,3.65
2023-05-14T03:05:44.070Z,3.20
2023-05-14T03:08:12.094Z,4.15
2023-05-14T03:10:40.030Z,3.60
2023-05-14T03:13:08.058Z,4.35
2023-05-14T03:15:36.146Z,4.68
2023-05-14T03:18:04.256Z,4.22
2023-05-14T03:20:33.607Z,4.57
2023-05-14T03:23:01.573Z,3.95
2023-05-14T03:25:29.513Z,3.95
2023-05-14T03:27:57.418Z,4.10
2023-05-14T03:30:25.676Z,3.90
2023-05-14T03:32:54.302Z,4.32
2023-05-14T03:35:22.266Z,4.85
2023-05-14T03:37:53.097Z,4.57
2023-05-14T03:40:21.756Z,4.78
2023-05-14T03:42:49.885Z,4.97
2023-05-14T03:45:17.855Z,4.20
2023-05-14T03:47:45.795Z,3.97
2023-05-14T03:50:13.961Z,4.47
2023-05-14T03:52:41.924Z,4.03
2023-05-14T03:55:11.662Z,3.88
2023-05-14T03:57:39.615Z,4.07
2023-05-14T04:00:08.864Z,4.03
2023-05-14T04:02:36.826Z,3.92
2023-05-14T04:05:05.494Z,4.13
2023-05-14T04:07:33.469Z,3.60
2023-05-14T04:10:04.216Z,4.05
2023-05-14T04:12:33.957Z,3.92
2023-05-14T04:15:02.215Z,3.92
2023-05-14T04:17:30.197Z,3.63
2023-05-14T04:19:58.191Z,3.13
2023-05-14T04:22:26.172Z,3.47
2023-05-14T04:24:54.062Z,4.00
2023-05-14T04:27:22.495Z,3.42
2023-05-14T04:29:52.011Z,3.05
2023-05-14T04:32:20.506Z,4.05
2023-05-14T04:34:48.506Z,2.78
2023-05-14T04:37:16.592Z,3.90
2023-05-14T04:39:44.670Z,4.88
2023-05-14T04:42:12.654Z,5.28
2023-05-14T04:44:40.541Z,5.18
2023-05-14T04:47:09.846Z,5.90
2023-05-14T04:49:37.815Z,5.85
2023-05-14T04:52:06.374Z,6.15
2023-05-14T04:54:34.417Z,5.15
2023-05-14T04:57:03.364Z,5.95
2023-05-14T04:59:31.491Z,4.97
2023-05-14T05:01:59.532Z,4.47
2023-05-14T05:04:29.129Z,4.28
2023-05-14T05:06:57.009Z,4.43
2023-05-14T05:09:25.003Z,4.28
2023-05-14T05:11:52.927Z,4.85
2023-05-14T05:14:20.872Z,5.53
2023-05-14T05:16:48.795Z,5.65
2023-05-14T05:19:16.827Z,5.43
2023-05-14T05:21:46.352Z,6.18
2023-05-14T05:24:14.552Z,5.20
2023-05-14T05:26:42.480Z,5.47
2023-05-14T05:29:10.450Z,6.00
2023-05-14T05:31:38.431Z,3.60
2023-05-14T05:34:06.580Z,5.57
2023-05-14T05:36:34.535Z,5.53
2023-05-14T05:39:03.891Z,6.38
2023-05-14T05:41:31.818Z,5.20
2023-05-14T05:43:59.727Z,5.32
2023-05-14T05:46:27.739Z,5.25
2023-05-14T05:48:55.800Z,5.15
2023-05-14T05:51:23.770Z,5.63
2023-05-14T05:53:51.795Z,5.93
2023-05-14T05:56:21.268Z,5.43
2023-05-14T05:58:49.369Z,5.25
2023-05-14T06:01:17.323Z,5.18
2023-05-14T06:03:47.660Z,5.63
2023-05-14T06:06:16.721Z,4.38
2023-05-14T06:08:44.655Z,5.50
2023-05-14T06:11:12.780Z,5.05
2023-05-14T06:13:42.140Z,5.35
2023-05-14T06:16:11.143Z,6.07
2023-05-14T06:18:39.136Z,6.20
2023-05-14T06:21:07.213Z,6.32
2023-05-14T06:23:35.173Z,7.13
2023-05-14T06:26:03.160Z,5.60
2023-05-14T06:28:31.134Z,5.32
2023-05-14T06:31:00.548Z,5.78
2023-05-14T06:33:31.348Z,8.07
2023-05-14T06:35:59.797Z,19.38
2023-05-14T06:38:27.763Z,18.50
2023-05-14T06:40:55.716Z,7.15
2023-05-14T06:43:23.690Z,5.72
2023-05-14T06:45:51.900Z,6.20
2023-05-14T06:48:21.684Z,5.05
2023-05-14T06:50:50.740Z,5.35
2023-05-14T06:53:18.718Z,5.47
2023-05-14T06:55:48.702Z,6.70
2023-05-14T06:58:16.706Z,5.53
2023-05-14T07:00:44.647Z,5.20
2023-05-14T07:03:12.606Z,5.65
2023-05-14T07:05:42.216Z,5.28
2023-05-14T07:08:10.151Z,5.70
2023-05-14T07:10:39.154Z,6.18
2023-05-14T07:13:07.249Z,5.85
2023-05-14T07:15:35.293Z,7.25
2023-05-14T07:18:03.247Z,7.97
2023-05-14T07:20:33.938Z,7.47
2023-05-14T07:23:03.600Z,8.82
2023-05-14T07:25:32.819Z,7.18
2023-05-14T07:28:00.806Z,7.80
2023-05-14T07:30:28.787Z,8.23
2023-05-14T07:32:56.852Z,8.38
2023-05-14T07:35:24.875Z,7.53
2023-05-14T07:37:52.879Z,8.40
2023-05-14T07:40:22.507Z,8.07
2023-05-14T07:42:50.758Z,8.50
2023-05-14T07:45:18.769Z,7.63
2023-05-14T07:47:46.887Z,7.30
2023-05-14T07:50:15.447Z,6.93
2023-05-14T07:52:43.508Z,7.22
2023-05-14T07:55:12.058Z,7.47
2023-05-14T07:57:41.560Z,7.78
2023-05-14T08:00:10.299Z,7.68
2023-05-14T08:02:38.852Z,7.78
2023-05-14T08:05:07.700Z,7.30
2023-05-14T08:07:35.788Z,7.90
2023-05-14T08:10:03.968Z,7.10
2023-05-14T08:12:31.991Z,7.35
2023-05-14T08:15:01.398Z,7.28
2023-05-14T08:17:29.364Z,6.30
2023-05-14T08:19:57.511Z,6.30
2023-05-14T08:22:25.504Z,7.10
2023-05-14T08:24:53.483Z,7.80
2023-05-14T08:27:21.608Z,8.35
2023-05-14T08:29:49.713Z,8.80
2023-05-14T08:32:23.370Z,9.05
2023-05-14T08:34:52.573Z,9.10
2023-05-14T08:37:20.840Z,8.63
2023-05-14T08:39:48.816Z,8.02
2023-05-14T08:42:21.988Z,7.82
2023-05-14T08:44:54.279Z,7.22
2023-05-14T08:47:26.357Z,9.18
2023-05-14T08:49:59.846Z,8.13
2023-05-14T08:52:27.997Z,9.55
2023-05-14T08:54:57.589Z,7.32
2023-05-14T08:57:27.068Z,8.02
2023-05-14T08:59:55.395Z,7.97
2023-05-14T09:02:28.798Z,9.02
2023-05-14T09:04:59.169Z,8.35
2023-05-14T09:07:27.446Z,9.05
2023-05-14T09:09:56.426Z,8.63
2023-05-14T09:12:24.437Z,8.43
2023-05-14T09:14:52.818Z,7.90
2023-05-14T09:17:21.263Z,7.75
2023-05-14T09:19:53.217Z,8.15
2023-05-14T09:22:22.392Z,6.30
2023-05-14T09:25:04.720Z,6.40
2023-05-14T09:27:34.127Z,4.63
2023-05-14T09:30:11.421Z,5.22
2023-05-14T09:32:40.861Z,5.50
2023-05-14T09:35:20.064Z,5.10
2023-05-14T09:37:49.726Z,4.78
2023-05-14T09:40:19.550Z,5.03
2023-05-14T09:42:48.302Z,5.03
2023-05-14T09:45:16.786Z,5.45
2023-05-14T09:47:45.442Z,5.90
2023-05-14T09:50:13.678Z,5.60
2023-05-14T09:52:43.517Z,6.43
2023-05-14T09:55:11.638Z,5.50
2023-05-14T09:57:39.892Z,3.35
2023-05-14T10:00:10.324Z,3.75
2023-05-14T10:02:41.357Z,4.55
2023-05-14T10:05:10.447Z,5.15
2023-05-14T10:07:42.145Z,5.72
2023-05-14T10:10:17.403Z,5.78
2023-05-14T10:12:52.517Z,4.88
2023-05-14T10:15:25.165Z,5.03
2023-05-14T10:17:57.270Z,5.65
2023-05-14T10:20:26.716Z,5.30
2023-05-14T10:22:55.153Z,5.47
2023-05-14T10:25:24.763Z,4.82
2023-05-14T10:27:52.953Z,4.55
2023-05-14T10:30:24.082Z,4.60
2023-05-14T10:33:07.781Z,3.47
2023-05-14T10:35:56.339Z,3.92
2023-05-14T10:38:27.256Z,3.17
2023-05-14T10:41:01.183Z,3.45
2023-05-14T10:43:31.104Z,3.63
2023-05-14T10:45:59.980Z,3.47
2023-05-14T10:48:28.274Z,3.20
2023-05-14T10:50:57.384Z,2.75
2023-05-14T10:53:33.729Z,3.03
2023-05-14T10:56:07.186Z,3.47
2023-05-14T10:58:39.313Z,2.80
2023-05-14T11:01:09.288Z,2.92
2023-05-14T11:03:43.589Z,3.03
2023-05-14T11:06:14.108Z,3.20
2023-05-14T11:08:43.369Z,3.35
2023-05-14T11:11:14.109Z,3.05
2023-05-14T11:13:42.843Z,2.67
2023-05-14T11:16:22.569Z,3.75
2023-05-14T11:18:56.076Z,3.17
2023-05-14T11:21:25.644Z,3.05
2023-05-14T11:23:55.742Z,3.70
2023-05-14T11:26:26.047Z,3.60
2023-05-14T11:28:54.056Z,3.35
2023-05-14T11:31:24.281Z,3.58
2023-05-14T11:33:53.643Z,4.07
2023-05-14T11:36:21.941Z,3.72
2023-05-14T11:38:52.989Z,2.97
2023-05-14T11:41:23.218Z,4.00
2023-05-14T11:43:52.837Z,3.50
2023-05-14T11:46:22.477Z,2.97
2023-05-14T11:48:50.527Z,2.97
2023-05-14T11:51:18.541Z,2.97
2023-05-14T11:53:46.768Z,2.90
2023-05-14T11:56:14.737Z,2.42
2023-05-14T11:58:42.800Z,3.25
2023-05-14T12:01:14.840Z,3.00
2023-05-14T12:03:43.143Z,2.88
2023-05-14T12:06:11.178Z,2.38
2023-05-14T12:08:39.169Z,2.38
2023-05-14T12:11:07.755Z,2.55
2023-05-14T12:13:37.574Z,2.55
2023-05-14T12:16:06.123Z,3.03
2023-05-14T12:18:35.692Z,2.58
2023-05-14T12:21:04.525Z,2.50
2023-05-14T12:23:33.909Z,2.10
2023-05-14T12:26:06.900Z,2.28
2023-05-14T12:28:38.018Z,2.92
2023-05-14T12:31:07.049Z,2.67
2023-05-14T12:33:36.448Z,2.53
2023-05-14T12:36:20.504Z,2.60
2023-05-14T12:38:50.088Z,2.30
2023-05-14T12:41:18.547Z,2.78
2023-05-14T12:43:56.260Z,2.33
2023-05-14T12:46:27.124Z,2.25
2023-05-14T12:48:56.919Z,2.03
2023-05-14T12:51:26.593Z,1.38
2023-05-14T12:53:55.062Z,1.70
2023-05-14T12:56:29.285Z,1.83
2023-05-14T12:58:57.524Z,2.38
2023-05-14T13:01:25.534Z,3.13
2023-05-14T13:03:53.588Z,3.20
2023-05-14T13:06:23.073Z,3.40
2023-05-14T13:08:51.021Z,3.20
2023-05-14T13:11:18.992Z,2.78
2023-05-14T13:13:46.951Z,2.97
2023-05-14T13:16:16.981Z,2.95
2023-05-14T13:18:45.148Z,2.80
2023-05-14T13:21:13.152Z,2.53
2023-05-14T13:23:42.535Z,2.28
2023-05-14T13:26:10.703Z,2.40
2023-05-14T13:28:39.104Z,2.05
2023-05-14T13:31:09.608Z,2.20
2023-05-14T13:33:39.493Z,2.38
2023-05-14T13:36:08.274Z,1.95
2023-05-14T13:38:36.465Z,1.42
2023-05-14T13:41:06.149Z,1.30
2023-05-14T13:43:35.826Z,1.38
2023-05-14T13:46:05.116Z,1.30
2023-05-14T13:48:33.370Z,1.08
2023-05-14T13:51:01.494Z,1.50
2023-05-14T13:53:29.532Z,1.45
2023-05-14T13:55:59.375Z,1.25
2023-05-14T13:58:30.124Z,1.20
2023-05-14T14:00:58.058Z,1.38
2023-05-14T14:03:26.118Z,1.13
2023-05-14T14:05:54.068Z,1.55
2023-05-14T14:08:23.971Z,1.55
2023-05-14T14:10:54.573Z,1.60
2023-05-14T14:16:52.340Z,1.38
2023-05-14T14:19:20.522Z,1.40
2023-05-14T14:24:16.732Z,1.30
2023-05-14T14:26:45.875Z,0.98
2023-05-14T14:29:13.830Z,1.27
2023-05-14T14:31:41.838Z,1.23
2023-05-14T14:34:11.216Z,1.38
2023-05-14T14:36:39.165Z,1.20
2023-05-14T14:39:07.158Z,1.63
2023-05-14T14:41:35.110Z,1.40
2023-05-14T14:44:03.253Z,2.08
2023-05-14T14:46:31.313Z,1.75
2023-05-14T14:48:59.307Z,1.35
2023-05-14T14:51:30.340Z,1.00
2023-05-14T14:53:58.385Z,1.05
2023-05-14T14:56:28.422Z,1.30
2023-05-14T14:58:56.389Z,1.00
2023-05-14T15:01:24.498Z,1.38
2023-05-14T15:03:52.730Z,1.30
2023-05-14T15:06:20.713Z,0.90
2023-05-14T15:08:50.074Z,1.00
2023-05-14T15:11:18.138Z,0.90
2023-05-14T15:13:46.258Z,1.23
2023-05-14T15:16:14.260Z,1.10
2023-05-14T15:18:42.297Z,0.85
2023-05-14T15:21:10.325Z,1.20
2023-05-14T15:23:38.276Z,1.00
2023-05-14T15:26:07.690Z,0.75
2023-05-14T15:28:35.651Z,0.80
2023-05-14T15:31:04.202Z,1.05
2023-05-14T15:33:34.012Z,1.02
2023-05-14T15:36:02.196Z,0.93
2023-05-14T15:38:30.169Z,1.08
2023-05-14T15:40:58.392Z,1.25
2023-05-14T15:43:27.884Z,2.08
2023-05-14T15:45:56.057Z,1.63
2023-05-14T15:48:24.016Z,1.67
2023-05-14T15:50:52.767Z,1.23
2023-05-14T15:53:20.940Z,1.80
2023-05-14T15:55:49.842Z,1.85
2023-05-14T15:58:17.818Z,1.83
2023-05-14T16:00:47.170Z,1.63
2023-05-14T16:03:15.178Z,1.80
2023-05-14T16:05:44.861Z,1.40
2023-05-14T16:08:14.099Z,1.92
2023-05-14T16:10:42.048Z,1.42
2023-05-14T16:13:10.030Z,1.55
2023-05-14T16:15:37.991Z,1.98
2023-05-14T16:18:07.723Z,1.45
2023-05-14T16:20:35.726Z,1.80
2023-05-14T16:23:04.021Z,2.10
2023-05-14T16:25:32.409Z,1.58
2023-05-14T16:28:01.236Z,2.40
2023-05-14T16:30:29.224Z,2.25
2023-05-14T16:32:57.232Z,1.83
2023-05-14T16:35:26.593Z,1.95
2023-05-14T16:37:54.560Z,2.10
2023-05-14T16:40:23.349Z,2.10
2023-05-14T16:42:51.910Z,2.55
2023-05-14T16:45:19.913Z,2.33
2023-05-14T16:47:47.902Z,2.80
2023-05-14T16:50:16.065Z,2.90
2023-05-14T16:52:45.465Z,2.25
2023-05-14T16:55:13.409Z,3.13
2023-05-14T16:57:41.472Z,2.97
2023-05-14T17:00:10.796Z,2.85
2023-05-14T17:02:39.105Z,3.13
2023-05-14T17:05:08.347Z,2.35
2023-05-14T17:07:37.915Z,2.47
2023-05-14T17:10:08.587Z,2.95
2023-05-14T17:12:36.499Z,3.90
2023-05-14T17:15:05.679Z,2.85
2023-05-14T17:17:34.064Z,2.38
2023-05-14T17:20:02.141Z,2.38
2023-05-14T17:22:30.120Z,1.77
2023-05-14T17:24:58.105Z,2.22
2023-05-14T17:27:29.291Z,2.20
2023-05-14T17:29:57.290Z,2.47
2023-05-14T17:32:25.602Z,2.20
2023-05-14T17:34:53.617Z,1.85
2023-05-14T17:37:21.719Z,2.25
2023-05-14T17:39:49.680Z,2.80
2023-05-14T17:42:18.025Z,3.05
2023-05-14T17:44:47.374Z,2.08
2023-05-14T17:47:15.388Z,3.25
2023-05-14T17:49:43.683Z,3.15
2023-05-14T17:52:11.687Z,3.95
2023-05-14T17:54:39.651Z,4.03
2023-05-14T17:57:07.841Z,3.40
2023-05-14T17:59:35.867Z,3.95
2023-05-14T18:02:05.825Z,3.40
2023-05-14T18:04:33.773Z,4.13
2023-05-14T18:07:03.228Z,3.45
2023-05-14T18:09:31.190Z,3.70
2023-05-14T18:11:59.113Z,3.42
2023-05-14T18:14:27.144Z,4.20
2023-05-14T18:16:56.001Z,3.65
2023-05-14T18:19:25.398Z,3.70
2023-05-14T18:21:55.605Z,4.10
2023-05-14T18:24:23.680Z,3.95
2023-05-14T18:26:51.726Z,4.03
2023-05-14T18:29:19.874Z,3.80
2023-05-14T18:31:47.817Z,3.70
2023-05-14T18:34:15.836Z,3.45
2023-05-14T18:36:45.192Z,3.20
2023-05-14T18:39:13.202Z,2.67
2023-05-14T18:41:41.336Z,3.63
2023-05-14T18:44:09.317Z,4.43
2023-05-14T18:46:37.384Z,3.17
2023-05-14T18:49:05.331Z,3.00
2023-05-14T18:51:33.304Z,3.63
2023-05-14T18:54:02.626Z,3.58
2023-05-14T18:56:30.671Z,3.72
2023-05-14T18:58:58.591Z,4.05
2023-05-14T19:01:26.613Z,4.13
2023-05-14T19:03:55.987Z,4.43
2023-05-14T19:06:24.369Z,4.63
2023-05-14T19:08:52.359Z,4.55
2023-05-14T19:11:23.454Z,4.22
2023-05-14T19:13:51.712Z,4.75
2023-05-14T19:16:19.785Z,4.75
2023-05-14T19:18:47.854Z,4.32
2023-05-14T19:21:16.101Z,4.57
2023-05-14T19:23:44.270Z,3.78
2023-05-14T19:26:12.996Z,4.85
2023-05-14T19:28:42.394Z,4.03
2023-05-14T19:31:11.118Z,3.95
2023-05-14T19:33:39.157Z,4.07
2023-05-14T19:36:07.483Z,4.00
2023-05-14T19:38:35.786Z,4.32
2023-05-14T19:41:03.685Z,3.58
2023-05-14T19:43:31.640Z,3.72
2023-05-14T19:46:01.500Z,4.00
2023-05-14T19:48:29.739Z,3.40
2023-05-14T19:50:57.661Z,3.50
2023-05-14T19:53:29.690Z,3.15
2023-05-14T19:55:58.016Z,3.55
2023-05-14T19:58:26.696Z,3.33
2023-05-14T20:00:57.428Z,4.18
2023-05-14T20:03:27.222Z,4.20
2023-05-14T20:05:56.370Z,4.05
2023-05-14T20:08:25.020Z,4.15
2023-05-14T20:10:53.020Z,4.55
2023-05-14T20:13:23.042Z,3.80
2023-05-14T20:15:51.860Z,3.13
2023-05-14T20:18:19.808Z,3.90
2023-05-14T20:20:49.201Z,5.10
2023-05-14T20:23:17.225Z,8.40
2023-05-14T20:25:45.463Z,6.75
2023-05-14T20:28:13.406Z,4.10
2023-05-14T20:30:41.441Z,4.05
2023-05-14T20:33:09.673Z,3.22
2023-05-14T20:35:37.674Z,3.58
2023-05-14T20:38:07.068Z,3.97
2023-05-14T20:40:35.044Z,3.00
2023-05-14T20:43:03.000Z,3.13
2023-05-14T20:45:30.976Z,2.85
2023-05-14T20:47:58.959Z,3.10
2023-05-14T20:50:27.841Z,3.22
2023-05-14T20:52:56.799Z,2.60
2023-05-14T20:55:26.514Z,3.42
2023-05-14T20:58:55.128Z,3.20
2023-05-14T21:01:23.200Z,2.97
2023-05-14T21:03:51.732Z,2.67
2023-05-14T21:06:19.855Z,3.15
2023-05-14T21:08:47.776Z,2.90
2023-05-14T21:11:17.130Z,3.25
2023-05-14T21:13:45.198Z,3.83
2023-05-14T21:16:13.241Z,3.20
2023-05-14T21:18:41.251Z,2.75
2023-05-14T21:21:09.302Z,3.10
2023-05-14T21:23:37.245Z,2.47
2023-05-14T21:26:05.480Z,2.65
2023-05-14T21:28:34.844Z,2.60
2023-05-14T21:31:02.832Z,2.83
2023-05-14T21:33:30.826Z,2.65
2023-05-14T21:35:58.834Z,3.40
2023-05-14T21:38:26.965Z,2.60
2023-05-14T21:40:54.918Z,2.92
2023-05-14T21:43:22.880Z,2.80
2023-05-14T21:45:52.237Z,3.08
2023-05-14T21:48:21.443Z,3.17
2023-05-14T21:50:49.477Z,3.13
2023-05-14T21:53:17.423Z,3.15
2023-05-14T21:55:45.413Z,4.47
2023-05-14T21:58:13.476Z,3.78
2023-05-14T22:00:41.413Z,3.15
2023-05-14T22:03:10.977Z,4.00
2023-05-14T22:05:38.957Z,3.97
2023-05-14T22:08:07.372Z,3.92
2023-05-14T22:10:35.934Z,3.83
2023-05-14T22:13:03.937Z,3.10
2023-05-14T22:15:31.968Z,3.70
2023-05-14T22:17:59.933Z,4.05
2023-05-14T22:20:29.282Z,3.97
2023-05-14T22:22:57.216Z,3.70
2023-05-14T22:25:25.716Z,4.75
2023-05-14T22:27:53.988Z,4.40
2023-05-14T22:30:22.308Z,5.47
2023-05-14T22:32:50.260Z,4.80
2023-05-14T22:35:18.640Z,4.55
2023-05-14T22:37:48.001Z,4.20
2023-05-14T22:40:16.208Z,4.03
2023-05-14T22:42:44.156Z,4.43
2023-05-14T22:45:12.518Z,4.05
2023-05-14T22:47:40.466Z,4.50
2023-05-14T22:50:11.677Z,4.70
2023-05-14T22:52:40.205Z,4.50
2023-05-14T22:55:10.254Z,4.57
2023-05-14T22:57:38.281Z,4.63
2023-05-14T23:00:08.886Z,4.57
2023-05-14T23:02:36.867Z,4.40
2023-05-14T23:05:05.252Z,4.72
2023-05-14T23:07:33.300Z,4.43
2023-05-14T23:10:01.340Z,4.88
2023-05-14T23:12:30.682Z,4.47
2023-05-14T23:14:59.264Z,4.00
2023-05-14T23:17:27.660Z,4.63
2023-05-14T23:19:55.787Z,4.15
2023-05-14T23:22:23.727Z,3.90
2023-05-14T23:24:51.701Z,4.38
2023-05-14T23:27:19.684Z,4.90
2023-05-14T23:29:49.018Z,4.90
2023-05-14T23:32:17.031Z,5.75
2023-05-14T23:34:45.049Z,5.63
2023-05-14T23:37:13.658Z,5.00
2023-05-14T23:39:41.821Z,5.13
2023-05-14T23:42:09.720Z,5.57
2023-05-14T23:44:37.693Z,4.93
2023-05-14T23:47:08.816Z,5.22
2023-05-14T23:49:37.050Z,4.50
2023-05-14T23:52:05.410Z,4.32
2023-05-14T23:54:33.338Z,4.78
2023-05-14T23:57:01.450Z,4.75
2023-05-14T23:59:29.406Z,4.65
